createdAt,value
2019-02-14T00:02:01.195Z,0.80
2019-02-14T00:04:32.477Z,0.80
2019-02-14T00:07:02.795Z,0.80
2019-02-14T00:09:33.079Z,0.80
2019-02-14T00:12:03.441Z,0.80
2019-02-14T00:14:33.765Z,0.70
2019-02-14T00:17:04.074Z,0.70
2019-02-14T00:19:34.340Z,0.70
2019-02-14T00:22:04.722Z,0.60
2019-02-14T00:24:35.110Z,0.60
2019-02-14T00:27:05.351Z,0.60
2019-02-14T00:29:35.668Z,0.60
2019-02-14T00:32:05.997Z,0.50
2019-02-14T00:34:36.327Z,0.50
2019-02-14T00:37:06.783Z,0.50
2019-02-14T00:39:37.108Z,0.50
2019-02-14T00:42:07.411Z,0.50
2019-02-14T00:44:37.739Z,0.40
2019-02-14T00:47:08.019Z,0.40
2019-02-14T00:49:38.414Z,0.40
2019-02-14T00:52:08.707Z,0.40
2019-02-14T00:54:39.067Z,0.40
2019-02-14T00:57:09.285Z,0.40
2019-02-14T00:59:39.748Z,0.30
2019-02-14T01:02:10.084Z,0.30
2019-02-14T01:04:40.343Z,0.30
2019-02-14T01:07:10.655Z,0.20
2019-02-14T01:09:41.007Z,0.20
2019-02-14T01:12:11.314Z,0.20
2019-02-14T01:14:41.579Z,0.30
2019-02-14T01:17:11.864Z,0.30
2019-02-14T01:19:42.199Z,0.30
2019-02-14T01:22:12.463Z,0.30
2019-02-14T01:24:42.772Z,0.30
2019-02-14T01:27:13.079Z,0.30
2019-02-14T01:29:45.450Z,0.20
2019-02-14T01:32:16.819Z,0.20
2019-02-14T01:34:47.408Z,0.20
2019-02-14T01:37:17.851Z,0.20
2019-02-14T01:39:48.273Z,0.30
2019-02-14T01:42:18.550Z,0.30
2019-02-14T01:44:48.892Z,0.30
2019-02-14T01:47:19.153Z,0.30
2019-02-14T01:49:49.562Z,0.20
2019-02-14T01:52:19.912Z,0.30
2019-02-14T01:54:50.239Z,0.20
2019-02-14T01:57:20.547Z,0.20
2019-02-14T01:59:51.204Z,0.20
2019-02-14T02:02:21.563Z,0.10
2019-02-14T02:04:52.222Z,0.10
2019-02-14T02:07:22.803Z,0.10
2019-02-14T02:09:53.053Z,0.00
2019-02-14T02:12:24.750Z,0.00
2019-02-14T02:14:55.045Z,0.10
2019-02-14T02:17:25.745Z,0.10
2019-02-14T02:19:56.059Z,0.10
2019-02-14T02:22:26.866Z,0.10
2019-02-14T02:24:57.170Z,0.00
2019-02-14T02:27:27.900Z,0.00
2019-02-14T02:29:58.216Z,0.00
2019-02-14T02:32:28.607Z,-0.10
2019-02-14T02:34:59.059Z,-0.10
2019-02-14T02:37:29.424Z,-0.20
2019-02-14T02:39:59.807Z,-0.20
2019-02-14T02:42:30.256Z,-0.20
2019-02-14T02:45:00.512Z,-0.30
2019-02-14T02:47:31.015Z,-0.20
2019-02-14T02:50:01.494Z,-0.30
2019-02-14T02:52:32.088Z,-0.30
2019-02-14T02:55:02.589Z,-0.30
2019-02-14T02:57:33.039Z,-0.30
2019-02-14T03:00:03.548Z,-0.30
2019-02-14T03:02:35.139Z,-0.40
2019-02-14T03:05:06.113Z,-0.40
2019-02-14T03:07:36.459Z,-0.40
2019-02-14T03:10:07.613Z,-0.40
2019-02-14T03:12:37.909Z,-0.40
2019-02-14T03:15:09.301Z,-0.50
2019-02-14T03:17:39.518Z,-0.50
2019-02-14T03:20:10.790Z,-0.50
2019-02-14T03:22:41.151Z,-0.50
2019-02-14T03:25:14.205Z,-0.60
2019-02-14T03:27:44.449Z,-0.60
2019-02-14T03:30:15.127Z,-0.60
2019-02-14T03:32:45.585Z,-0.70
2019-02-14T03:35:15.910Z,-0.70
2019-02-14T03:37:46.263Z,-0.70
2019-02-14T03:40:16.610Z,-0.80
2019-02-14T03:42:46.833Z,-0.80
2019-02-14T03:45:17.575Z,-0.70
2019-02-14T03:47:49.454Z,-0.70
2019-02-14T03:50:19.802Z,-0.70
2019-02-14T03:52:50.048Z,-0.70
2019-02-14T03:55:21.277Z,-0.70
2019-02-14T03:57:51.615Z,-0.70
2019-02-14T04:00:21.941Z,-0.70
2019-02-14T04:02:52.239Z,-0.80
2019-02-14T04:05:22.622Z,-0.80
2019-02-14T04:07:52.995Z,-0.80
2019-02-14T04:10:23.285Z,-0.80
2019-02-14T04:12:54.611Z,-0.80
2019-02-14T04:15:24.871Z,-0.80
2019-02-14T04:17:55.208Z,-0.90
2019-02-14T04:20:25.619Z,-0.90
2019-02-14T04:22:55.912Z,-0.90
2019-02-14T04:25:26.233Z,-0.90
2019-02-14T04:27:56.558Z,-1.00
2019-02-14T04:30:27.162Z,-1.10
2019-02-14T04:32:57.428Z,-1.10
2019-02-14T04:35:27.714Z,-1.10
2019-02-14T04:37:58.035Z,-1.10
2019-02-14T04:40:33.516Z,-1.10
2019-02-14T04:43:00.400Z,-1.10
2019-02-14T04:45:30.706Z,-1.10
2019-02-14T04:48:00.964Z,-1.10
2019-02-14T04:50:31.316Z,-1.10
2019-02-14T04:53:01.778Z,-1.10
2019-02-14T04:55:32.135Z,-1.10
2019-02-14T04:58:02.423Z,-1.10
2019-02-14T05:00:32.798Z,-1.10
2019-02-14T05:03:03.104Z,-1.20
2019-02-14T05:05:33.513Z,-1.20
2019-02-14T05:08:03.890Z,-1.20
2019-02-14T05:10:34.138Z,-1.20
2019-02-14T05:13:04.449Z,-1.20
2019-02-14T05:15:34.790Z,-1.10
2019-02-14T05:18:05.219Z,-1.10
2019-02-14T05:20:35.480Z,-1.20
2019-02-14T05:23:05.766Z,-1.20
2019-02-14T05:25:35.993Z,-1.10
2019-02-14T05:28:06.296Z,-1.10
2019-02-14T05:30:36.554Z,-1.10
2019-02-14T05:33:06.823Z,-1.10
2019-02-14T05:35:37.278Z,-1.00
2019-02-14T05:38:07.830Z,-1.10
2019-02-14T05:40:38.058Z,-1.10
2019-02-14T05:43:08.417Z,-1.10
2019-02-14T05:45:38.658Z,-1.20
2019-02-14T05:48:10.520Z,-1.20
2019-02-14T05:50:41.235Z,-1.20
2019-02-14T05:53:11.492Z,-1.20
2019-02-14T05:55:42.369Z,-1.20
2019-02-14T05:58:12.675Z,-1.20
2019-02-14T06:00:45.977Z,-1.20
2019-02-14T06:03:16.373Z,-1.30
2019-02-14T06:05:46.676Z,-1.30
2019-02-14T06:08:17.114Z,-1.30
2019-02-14T06:10:49.924Z,-1.20
2019-02-14T06:13:20.145Z,-1.20
2019-02-14T06:15:50.684Z,-1.20
2019-02-14T06:18:20.995Z,-1.30
2019-02-14T06:20:51.291Z,-1.30
2019-02-14T06:23:21.958Z,-1.30
2019-02-14T06:25:52.455Z,-1.40
2019-02-14T06:28:22.735Z,-1.40
2019-02-14T06:30:53.042Z,-1.40
2019-02-14T06:33:23.342Z,-1.40
2019-02-14T06:35:55.962Z,-1.40
2019-02-14T06:38:26.252Z,-1.40
2019-02-14T06:40:56.578Z,-1.40
2019-02-14T06:43:26.831Z,-1.40
2019-02-14T06:46:00.566Z,-1.30
2019-02-14T06:48:30.882Z,-1.30
2019-02-14T06:51:01.276Z,-1.30
2019-02-14T06:53:31.514Z,-1.30
2019-02-14T06:56:01.774Z,-1.40
2019-02-14T06:58:32.006Z,-1.30
2019-02-14T07:01:02.357Z,-1.30
2019-02-14T07:03:32.599Z,-1.40
2019-02-14T07:06:02.899Z,-1.30
2019-02-14T07:08:33.242Z,-1.30
2019-02-14T07:11:03.742Z,-1.30
2019-02-14T07:13:34.050Z,-1.30
2019-02-14T07:16:04.457Z,-1.30
2019-02-14T07:18:34.723Z,-1.20
2019-02-14T07:21:05.043Z,-1.10
2019-02-14T07:23:35.444Z,-1.10
2019-02-14T07:26:05.675Z,-1.00
2019-02-14T07:28:36.000Z,-1.00
2019-02-14T07:31:06.351Z,-0.90
2019-02-14T07:33:36.667Z,-0.90
2019-02-14T07:36:06.923Z,-0.90
2019-02-14T07:38:37.164Z,-0.90
2019-02-14T07:41:07.446Z,-0.80
2019-02-14T07:43:39.324Z,-0.80
2019-02-14T07:46:09.546Z,-0.70
2019-02-14T07:48:39.837Z,-0.70
2019-02-14T07:51:10.087Z,-0.60
2019-02-14T07:53:40.432Z,-0.60
2019-02-14T07:56:10.711Z,-0.50
2019-02-14T07:58:41.127Z,-0.50
2019-02-14T08:01:11.489Z,-0.40
2019-02-14T08:03:41.967Z,-0.40
2019-02-14T08:06:12.237Z,-0.20
2019-02-14T08:08:42.630Z,0.00
2019-02-14T08:11:12.991Z,0.10
2019-02-14T08:13:43.389Z,0.20
2019-02-14T08:16:13.688Z,0.30
2019-02-14T08:18:44.261Z,0.50
2019-02-14T08:21:14.738Z,0.60
2019-02-14T08:23:45.052Z,0.70
2019-02-14T08:26:15.304Z,0.90
2019-02-14T08:28:45.567Z,1.30
2019-02-14T08:31:15.939Z,1.50
2019-02-14T08:33:46.269Z,1.50
2019-02-14T08:36:16.602Z,1.70
2019-02-14T08:38:48.526Z,1.70
2019-02-14T08:41:19.280Z,1.80
2019-02-14T08:43:49.751Z,1.70
2019-02-14T08:46:21.067Z,1.70
2019-02-14T08:48:51.692Z,1.70
2019-02-14T08:51:22.991Z,1.80
2019-02-14T08:53:53.285Z,2.10
2019-02-14T08:56:23.648Z,2.30
2019-02-14T08:58:53.914Z,2.60
2019-02-14T09:01:24.330Z,2.90
2019-02-14T09:03:54.613Z,3.00
2019-02-14T09:06:24.962Z,3.20
2019-02-14T09:08:55.439Z,3.30
2019-02-14T09:11:27.374Z,3.50
2019-02-14T09:13:58.111Z,3.60
2019-02-14T09:16:28.432Z,3.70
2019-02-14T09:18:58.960Z,3.70
2019-02-14T09:21:29.211Z,3.70
2019-02-14T09:24:00.024Z,3.90
2019-02-14T09:26:30.332Z,4.00
2019-02-14T09:29:00.803Z,4.10
2019-02-14T09:31:31.194Z,4.20
2019-02-14T09:34:01.847Z,4.40
2019-02-14T09:36:32.178Z,4.40
2019-02-14T09:39:05.560Z,4.50
2019-02-14T09:41:35.954Z,4.60
2019-02-14T09:44:06.226Z,4.80
2019-02-14T09:46:36.476Z,4.90
2019-02-14T09:49:06.821Z,5.00
2019-02-14T09:51:37.291Z,5.10
2019-02-14T09:54:07.622Z,5.20
2019-02-14T09:56:38.013Z,5.30
2019-02-14T09:59:08.401Z,5.50
2019-02-14T10:01:38.740Z,5.60
2019-02-14T10:04:09.223Z,5.80
2019-02-14T10:06:39.606Z,5.90
2019-02-14T10:09:10.582Z,6.00
2019-02-14T10:11:40.865Z,6.00
2019-02-14T10:14:12.834Z,6.20
2019-02-14T10:16:43.200Z,6.30
2019-02-14T10:19:13.471Z,6.40
2019-02-14T10:21:43.829Z,6.50
2019-02-14T10:24:16.384Z,6.40
2019-02-14T10:26:46.810Z,6.50
2019-02-14T10:29:17.237Z,6.50
2019-02-14T10:31:47.451Z,6.70
2019-02-14T10:34:17.701Z,6.80
2019-02-14T10:36:47.986Z,7.00
2019-02-14T10:39:18.305Z,7.20
2019-02-14T10:41:48.561Z,7.50
2019-02-14T10:44:18.841Z,7.60
2019-02-14T10:46:49.178Z,7.80
2019-02-14T10:49:19.713Z,7.90
2019-02-14T10:51:50.098Z,8.10
2019-02-14T10:54:20.347Z,8.20
2019-02-14T10:56:50.538Z,8.30
2019-02-14T10:59:20.813Z,8.30
2019-02-14T11:01:51.006Z,8.40
2019-02-14T11:04:21.256Z,8.40
2019-02-14T11:06:51.652Z,8.60
2019-02-14T11:09:21.971Z,8.60
2019-02-14T11:11:52.245Z,8.70
2019-02-14T11:14:28.950Z,8.70
2019-02-14T11:16:54.494Z,8.80
2019-02-14T11:19:24.823Z,8.70
2019-02-14T11:21:55.071Z,8.60
2019-02-14T11:24:25.359Z,8.60
2019-02-14T11:26:55.595Z,8.50
2019-02-14T11:29:25.896Z,8.40
2019-02-14T11:31:56.114Z,8.50
2019-02-14T11:34:26.574Z,8.50
2019-02-14T11:36:56.980Z,8.60
2019-02-14T11:39:27.266Z,8.70
2019-02-14T11:41:57.588Z,8.80
2019-02-14T11:44:27.966Z,8.90
2019-02-14T11:46:59.282Z,9.00
2019-02-14T11:49:29.539Z,9.10
2019-02-14T11:51:59.808Z,9.10
2019-02-14T11:54:31.091Z,9.10
2019-02-14T11:57:01.415Z,9.20
2019-02-14T11:59:31.696Z,9.30
2019-02-14T12:02:01.958Z,9.40
2019-02-14T12:04:33.833Z,9.50
2019-02-14T12:07:04.082Z,9.60
2019-02-14T12:09:34.406Z,9.70
2019-02-14T12:12:04.730Z,9.90
2019-02-14T12:14:35.165Z,10.00
2019-02-14T12:17:05.431Z,10.10
2019-02-14T12:19:37.334Z,10.20
2019-02-14T12:22:07.774Z,10.30
2019-02-14T12:24:38.090Z,10.30
2019-02-14T12:27:08.379Z,10.20
2019-02-14T12:29:39.201Z,10.20
2019-02-14T12:32:09.565Z,10.30
2019-02-14T12:34:40.055Z,10.30
2019-02-14T12:37:10.516Z,10.40
2019-02-14T12:39:40.785Z,10.50
2019-02-14T12:42:11.266Z,10.60
2019-02-14T12:44:41.567Z,10.60
2019-02-14T12:47:12.070Z,10.70
2019-02-14T12:49:42.313Z,10.70
2019-02-14T12:52:12.826Z,10.70
2019-02-14T12:54:43.246Z,10.70
2019-02-14T12:57:13.583Z,10.60
2019-02-14T12:59:44.319Z,10.60
2019-02-14T13:02:14.776Z,10.60
2019-02-14T13:04:45.379Z,10.70
2019-02-14T13:07:15.903Z,10.80
2019-02-14T13:09:46.142Z,10.80
2019-02-14T13:12:16.899Z,10.80
2019-02-14T13:14:47.219Z,10.80
2019-02-14T13:17:17.549Z,10.90
2019-02-14T13:19:47.867Z,11.00
2019-02-14T13:22:21.330Z,11.10
2019-02-14T13:24:51.770Z,11.20
2019-02-14T13:27:22.139Z,11.20
2019-02-14T13:29:52.992Z,11.20
2019-02-14T13:32:23.253Z,11.30
2019-02-14T13:34:54.660Z,11.30
2019-02-14T13:37:25.022Z,11.40
2019-02-14T13:39:55.343Z,11.60
2019-02-14T13:42:25.613Z,11.60
2019-02-14T13:44:56.043Z,11.70
2019-02-14T13:47:27.261Z,11.80
2019-02-14T13:49:57.653Z,11.80
2019-02-14T13:52:27.869Z,11.80
2019-02-14T13:54:58.312Z,11.70
2019-02-14T13:57:28.579Z,11.70
2019-02-14T13:59:59.194Z,11.80
2019-02-14T14:02:29.629Z,12.00
2019-02-14T14:05:02.667Z,12.10
2019-02-14T14:07:40.159Z,12.20
2019-02-14T14:10:05.473Z,12.30
2019-02-14T14:12:36.721Z,12.40
2019-02-14T14:15:07.587Z,12.40
2019-02-14T14:17:37.838Z,12.40
2019-02-14T14:20:08.298Z,12.40
2019-02-14T14:22:38.869Z,12.40
2019-02-14T14:25:09.402Z,12.50
2019-02-14T14:27:39.855Z,12.50
2019-02-14T14:30:10.668Z,12.50
2019-02-14T14:32:40.987Z,12.50
2019-02-14T14:35:11.501Z,12.50
2019-02-14T14:37:42.835Z,12.50
2019-02-14T14:40:13.145Z,12.50
2019-02-14T14:43:08.097Z,12.50
2019-02-14T14:45:58.516Z,12.50
2019-02-14T14:48:33.848Z,12.50
2019-02-14T14:51:04.217Z,12.50
2019-02-14T14:53:34.488Z,12.50
2019-02-14T14:56:04.945Z,12.50
2019-02-14T14:58:35.244Z,12.60
2019-02-14T15:01:05.661Z,12.60
2019-02-14T15:03:35.891Z,12.60
2019-02-14T15:06:07.808Z,12.50
2019-02-14T15:08:38.199Z,12.50
2019-02-14T15:11:08.535Z,12.60
2019-02-14T15:13:38.780Z,12.60
2019-02-14T15:16:09.223Z,12.70
2019-02-14T15:18:39.545Z,12.70
2019-02-14T15:21:09.818Z,12.70
2019-02-14T15:23:40.286Z,12.60
2019-02-14T15:26:10.754Z,12.60
2019-02-14T15:28:43.468Z,12.60
2019-02-14T15:31:15.408Z,12.60
2019-02-14T15:33:45.707Z,12.60
2019-02-14T15:36:15.959Z,12.60
2019-02-14T15:38:46.417Z,12.50
2019-02-14T15:41:16.627Z,12.40
2019-02-14T15:43:48.850Z,12.50
2019-02-14T15:46:19.347Z,12.30
2019-02-14T15:48:51.318Z,12.30
2019-02-14T15:51:21.625Z,12.20
2019-02-14T15:53:51.955Z,12.10
2019-02-14T15:56:22.208Z,11.90
2019-02-14T15:58:54.687Z,11.80
2019-02-14T16:01:24.631Z,11.70
2019-02-14T16:03:55.155Z,11.60
2019-02-14T16:06:28.330Z,11.50
2019-02-14T16:08:59.359Z,11.40
2019-02-14T16:11:31.181Z,11.30
2019-02-14T16:14:01.616Z,11.20
2019-02-14T16:16:31.862Z,11.20
2019-02-14T16:19:02.305Z,11.20
2019-02-14T16:21:32.931Z,11.10
2019-02-14T16:24:03.237Z,11.10
2019-02-14T16:26:35.313Z,11.10
2019-02-14T16:29:06.036Z,11.00
2019-02-14T16:31:36.719Z,10.90
2019-02-14T16:34:07.200Z,10.80
2019-02-14T16:36:37.890Z,10.60
2019-02-14T16:39:10.915Z,10.50
2019-02-14T16:41:41.197Z,10.40
2019-02-14T16:44:11.577Z,10.30
2019-02-14T16:46:41.911Z,10.20
2019-02-14T16:49:12.732Z,10.00
2019-02-14T16:51:44.682Z,9.90
2019-02-14T16:54:15.024Z,9.70
2019-02-14T16:56:45.355Z,9.60
2019-02-14T16:59:15.907Z,9.40
2019-02-14T17:01:46.357Z,9.50
2019-02-14T17:04:18.658Z,9.40
2019-02-14T17:06:49.144Z,9.30
2019-02-14T17:09:19.512Z,9.20
2019-02-14T17:11:49.858Z,9.10
2019-02-14T17:14:20.284Z,9.10
2019-02-14T17:16:50.645Z,9.00
2019-02-14T17:19:21.156Z,8.90
2019-02-14T17:21:51.565Z,8.80
2019-02-14T17:24:21.868Z,8.90
2019-02-14T17:26:52.171Z,8.80
2019-02-14T17:29:22.539Z,8.80
2019-02-14T17:31:54.400Z,8.70
2019-02-14T17:34:24.700Z,8.60
2019-02-14T17:36:55.077Z,8.40
2019-02-14T17:39:26.977Z,8.30
2019-02-14T17:41:57.359Z,8.20
2019-02-14T17:44:27.786Z,8.10
2019-02-14T17:46:58.249Z,8.00
2019-02-14T17:49:28.651Z,7.90
2019-02-14T17:52:04.256Z,7.90
2019-02-14T17:54:34.683Z,7.80
2019-02-14T17:57:05.153Z,7.70
2019-02-14T17:59:38.434Z,7.60
2019-02-14T18:02:09.129Z,7.60
2019-02-14T18:04:42.563Z,7.50
2019-02-14T18:07:12.944Z,7.40
2019-02-14T18:09:43.378Z,7.30
2019-02-14T18:12:13.691Z,7.20
2019-02-14T18:14:44.294Z,7.20
2019-02-14T18:17:14.644Z,7.10
2019-02-14T18:19:45.200Z,7.00
2019-02-14T18:22:17.144Z,7.00
2019-02-14T18:24:47.490Z,6.90
2019-02-14T18:27:17.828Z,6.80
2019-02-14T18:29:48.193Z,6.70
2019-02-14T18:32:18.706Z,6.70
2019-02-14T18:34:49.210Z,6.60
2019-02-14T18:37:19.578Z,6.50
2019-02-14T18:39:50.050Z,6.40
2019-02-14T18:42:20.356Z,6.40
2019-02-14T18:44:50.701Z,6.40
2019-02-14T18:47:21.005Z,6.30
2019-02-14T18:49:57.715Z,6.20
2019-02-14T18:52:28.393Z,6.10
2019-02-14T18:54:58.939Z,6.00
2019-02-14T18:57:29.315Z,5.90
2019-02-14T19:00:01.353Z,5.90
2019-02-14T19:02:33.066Z,5.90
2019-02-14T19:05:03.533Z,5.90
2019-02-14T19:07:33.834Z,5.80
2019-02-14T19:10:04.606Z,5.80
2019-02-14T19:12:35.111Z,5.70
2019-02-14T19:15:05.742Z,5.70
2019-02-14T19:17:37.093Z,5.70
2019-02-14T19:20:07.971Z,5.60
2019-02-14T19:22:39.659Z,5.60
2019-02-14T19:25:10.274Z,5.50
2019-02-14T19:27:40.750Z,5.50
2019-02-14T19:30:12.927Z,5.50
2019-02-14T19:32:43.385Z,5.40
2019-02-14T19:35:22.472Z,5.40
2019-02-14T19:37:46.510Z,5.30
2019-02-14T19:40:19.623Z,5.30
2019-02-14T19:42:49.973Z,5.30
2019-02-14T19:45:20.776Z,5.30
2019-02-14T19:47:51.155Z,5.20
2019-02-14T19:50:21.734Z,5.20
2019-02-14T19:52:54.539Z,5.20
2019-02-14T19:55:24.949Z,5.20
2019-02-14T19:57:59.269Z,5.10
2019-02-14T20:00:29.819Z,5.20
2019-02-14T20:03:00.321Z,5.20
2019-02-14T20:05:30.711Z,5.20
2019-02-14T20:08:01.153Z,5.20
2019-02-14T20:10:31.665Z,5.40
2019-02-14T20:13:02.031Z,5.30
2019-02-14T20:15:37.480Z,5.20
2019-02-14T20:18:07.860Z,5.20
2019-02-14T20:20:38.464Z,5.20
2019-02-14T20:23:08.925Z,5.20
2019-02-14T20:25:39.271Z,5.20
2019-02-14T20:28:09.631Z,5.20
2019-02-14T20:30:40.126Z,5.00
2019-02-14T20:33:10.493Z,5.00
2019-02-14T20:35:41.046Z,4.90
2019-02-14T20:38:11.473Z,4.80
2019-02-14T20:40:43.560Z,4.70
2019-02-14T20:43:13.960Z,4.80
2019-02-14T20:45:44.238Z,4.80
2019-02-14T20:48:15.538Z,4.70
2019-02-14T20:50:45.956Z,4.70
2019-02-14T20:53:16.326Z,4.60
2019-02-14T20:55:46.753Z,4.60
2019-02-14T20:58:17.282Z,4.60
2019-02-14T21:00:47.855Z,4.60
2019-02-14T21:03:18.390Z,4.50
2019-02-14T21:05:48.868Z,4.40
2019-02-14T21:08:19.228Z,4.40
2019-02-14T21:10:49.672Z,4.20
2019-02-14T21:13:19.903Z,4.20
2019-02-14T21:15:50.589Z,4.10
2019-02-14T21:18:21.017Z,4.10
2019-02-14T21:20:51.428Z,4.10
2019-02-14T21:23:21.812Z,4.00
2019-02-14T21:25:52.226Z,4.00
2019-02-14T21:28:22.650Z,3.90
2019-02-14T21:30:54.143Z,3.90
2019-02-14T21:33:24.455Z,3.80
2019-02-14T21:35:54.913Z,3.70
2019-02-14T21:38:25.610Z,3.70
2019-02-14T21:40:58.285Z,3.70
2019-02-14T21:43:28.535Z,3.70
2019-02-14T21:45:58.948Z,3.70
2019-02-14T21:48:29.377Z,3.70
2019-02-14T21:50:59.638Z,3.70
2019-02-14T21:53:29.997Z,3.70
2019-02-14T21:56:02.165Z,3.70
2019-02-14T21:58:32.665Z,3.70
2019-02-14T22:01:03.077Z,3.70
2019-02-14T22:03:33.400Z,3.60
2019-02-14T22:06:03.775Z,3.60
2019-02-14T22:08:34.134Z,3.60
2019-02-14T22:11:04.830Z,3.60
2019-02-14T22:13:35.189Z,3.60
2019-02-14T22:16:05.651Z,3.50
2019-02-14T22:18:35.991Z,3.50
2019-02-14T22:21:06.313Z,3.50
2019-02-14T22:23:36.633Z,3.50
2019-02-14T22:26:06.967Z,3.40
2019-02-14T22:28:37.322Z,3.40
2019-02-14T22:31:07.700Z,3.30
2019-02-14T22:33:38.050Z,3.40
2019-02-14T22:36:08.390Z,3.40
2019-02-14T22:38:38.729Z,3.40
2019-02-14T22:41:09.073Z,3.40
2019-02-14T22:43:39.512Z,3.40
2019-02-14T22:46:09.814Z,3.30
2019-02-14T22:48:40.138Z,3.30
2019-02-14T22:51:10.432Z,3.40
2019-02-14T22:53:40.854Z,3.40
2019-02-14T22:56:11.155Z,3.40
2019-02-14T22:58:41.534Z,3.50
2019-02-14T23:01:12.778Z,3.50
2019-02-14T23:03:43.192Z,3.50
2019-02-14T23:06:13.507Z,3.50
2019-02-14T23:08:43.969Z,3.60
2019-02-14T23:11:14.322Z,3.70
2019-02-14T23:13:44.572Z,3.70
2019-02-14T23:16:15.056Z,3.70
2019-02-14T23:18:45.561Z,3.70
2019-02-14T23:21:15.927Z,3.70
2019-02-14T23:23:46.402Z,3.60
2019-02-14T23:26:16.842Z,3.60
2019-02-14T23:28:47.071Z,3.60
2019-02-14T23:31:17.760Z,3.60
2019-02-14T23:33:48.072Z,3.60
2019-02-14T23:36:18.753Z,3.60
2019-02-14T23:38:49.026Z,3.60
2019-02-14T23:41:20.027Z,3.50
2019-02-14T23:43:50.350Z,3.50
2019-02-14T23:46:22.498Z,3.40
2019-02-14T23:48:52.728Z,3.40
2019-02-14T23:51:23.096Z,3.40
2019-02-14T23:53:53.389Z,3.40
2019-02-14T23:56:23.686Z,3.30
2019-02-14T23:58:54.057Z,3.30
